sensor_id;sensor_type;location;lat;lon;timestamp;P1;durP1;ratioP1;P2;durP2;ratioP2
40755;SDS011;26461;45.630;9.418;2023-07-31T00:01:10;7.03;;;6.63;;
40755;SDS011;26461;45.630;9.418;2023-07-31T00:04:15;6.87;;;6.47;;
40755;SDS011;26461;45.630;9.418;2023-07-31T00:07:20;6.70;;;6.30;;
40755;SDS011;26461;45.630;9.418;2023-07-31T00:10:31;6.80;;;6.30;;
40755;SDS011;26461;45.630;9.418;2023-07-31T00:13:37;5.90;;;5.60;;
40755;SDS011;26461;45.630;9.418;2023-07-31T00:16:48;5.93;;;5.63;;
40755;SDS011;26461;45.630;9.418;2023-07-31T00:19:53;6.27;;;5.60;;
40755;SDS011;26461;45.630;9.418;2023-07-31T00:22:58;7.60;;;7.20;;
40755;SDS011;26461;45.630;9.418;2023-07-31T00:26:03;7.77;;;7.37;;
40755;SDS011;26461;45.630;9.418;2023-07-31T00:29:09;7.20;;;6.80;;
40755;SDS011;26461;45.630;9.418;2023-07-31T00:32:15;6.13;;;5.80;;
40755;SDS011;26461;45.630;9.418;2023-07-31T00:35:25;8.00;;;6.80;;
40755;SDS011;26461;45.630;9.418;2023-07-31T00:38:36;8.63;;;6.70;;
40755;SDS011;26461;45.630;9.418;2023-07-31T00:41:46;6.93;;;6.53;;
40755;SDS011;26461;45.630;9.418;2023-07-31T00:44:56;6.13;;;5.80;;
40755;SDS011;26461;45.630;9.418;2023-07-31T00:48:02;7.07;;;6.67;;
40755;SDS011;26461;45.630;9.418;2023-07-31T00:51:11;8.90;;;7.10;;
40755;SDS011;26461;45.630;9.418;2023-07-31T00:54:22;7.30;;;6.90;;
40755;SDS011;26461;45.630;9.418;2023-07-31T00:57:27;6.90;;;6.60;;
40755;SDS011;26461;45.630;9.418;2023-07-31T01:00:32;8.60;;;6.33;;
40755;SDS011;26461;45.630;9.418;2023-07-31T01:03:37;6.83;;;6.47;;
40755;SDS011;26461;45.630;9.418;2023-07-31T01:07:01;7.40;;;6.83;;
40755;SDS011;26461;45.630;9.418;2023-07-31T01:10:20;8.00;;;6.60;;
40755;SDS011;26461;45.630;9.418;2023-07-31T01:13:29;8.30;;;7.50;;
40755;SDS011;26461;45.630;9.418;2023-07-31T01:16:34;7.40;;;7.00;;
40755;SDS011;26461;45.630;9.418;2023-07-31T01:19:45;7.87;;;7.47;;
40755;SDS011;26461;45.630;9.418;2023-07-31T01:26:36;7.00;;;6.60;;
40755;SDS011;26461;45.630;9.418;2023-07-31T01:32:49;9.33;;;7.87;;
40755;SDS011;26461;45.630;9.418;2023-07-31T01:35:57;7.67;;;7.27;;
40755;SDS011;26461;45.630;9.418;2023-07-31T01:39:08;7.43;;;6.87;;
40755;SDS011;26461;45.630;9.418;2023-07-31T01:42:18;6.50;;;6.10;;
40755;SDS011;26461;45.630;9.418;2023-07-31T01:45:28;7.23;;;6.83;;
40755;SDS011;26461;45.630;9.418;2023-07-31T01:48:38;7.10;;;6.50;;
40755;SDS011;26461;45.630;9.418;2023-07-31T01:51:44;6.83;;;6.43;;
40755;SDS011;26461;45.630;9.418;2023-07-31T01:54:54;6.70;;;6.30;;
40755;SDS011;26461;45.630;9.418;2023-07-31T01:57:59;6.77;;;6.37;;
40755;SDS011;26461;45.630;9.418;2023-07-31T02:01:09;7.77;;;7.47;;
40755;SDS011;26461;45.630;9.418;2023-07-31T02:04:15;8.37;;;6.80;;
40755;SDS011;26461;45.630;9.418;2023-07-31T02:07:20;7.50;;;7.07;;
40755;SDS011;26461;45.630;9.418;2023-07-31T02:10:26;6.50;;;6.10;;
40755;SDS011;26461;45.630;9.418;2023-07-31T02:13:37;7.00;;;6.20;;
40755;SDS011;26461;45.630;9.418;2023-07-31T02:16:47;6.60;;;6.20;;
40755;SDS011;26461;45.630;9.418;2023-07-31T02:19:57;8.63;;;6.17;;
40755;SDS011;26461;45.630;9.418;2023-07-31T02:23:02;6.90;;;5.93;;
40755;SDS011;26461;45.630;9.418;2023-07-31T02:26:07;6.63;;;5.40;;
40755;SDS011;26461;45.630;9.418;2023-07-31T02:29:18;5.80;;;5.43;;
40755;SDS011;26461;45.630;9.418;2023-07-31T02:32:24;6.60;;;5.90;;
40755;SDS011;26461;45.630;9.418;2023-07-31T02:35:29;7.60;;;5.53;;
40755;SDS011;26461;45.630;9.418;2023-07-31T02:38:35;5.63;;;5.33;;
40755;SDS011;26461;45.630;9.418;2023-07-31T02:41:45;5.43;;;5.10;;
40755;SDS011;26461;45.630;9.418;2023-07-31T02:44:55;7.07;;;6.67;;
40755;SDS011;26461;45.630;9.418;2023-07-31T02:48:05;6.43;;;5.70;;
40755;SDS011;26461;45.630;9.418;2023-07-31T02:51:15;7.70;;;6.90;;
40755;SDS011;26461;45.630;9.418;2023-07-31T02:54:20;9.83;;;6.07;;
40755;SDS011;26461;45.630;9.418;2023-07-31T02:57:26;6.50;;;6.07;;
40755;SDS011;26461;45.630;9.418;2023-07-31T03:00:31;7.57;;;6.63;;
40755;SDS011;26461;45.630;9.418;2023-07-31T03:03:37;10.37;;;7.10;;
40755;SDS011;26461;45.630;9.418;2023-07-31T03:06:42;6.70;;;6.30;;
40755;SDS011;26461;45.630;9.418;2023-07-31T03:09:47;9.20;;;6.43;;
40755;SDS011;26461;45.630;9.418;2023-07-31T03:12:52;7.50;;;6.53;;
40755;SDS011;26461;45.630;9.418;2023-07-31T03:15:57;5.80;;;5.50;;
40755;SDS011;26461;45.630;9.418;2023-07-31T03:19:02;8.80;;;6.40;;
40755;SDS011;26461;45.630;9.418;2023-07-31T03:22:12;5.87;;;5.57;;
40755;SDS011;26461;45.630;9.418;2023-07-31T03:25:17;6.03;;;5.80;;
40755;SDS011;26461;45.630;9.418;2023-07-31T03:28:22;6.50;;;6.10;;
40755;SDS011;26461;45.630;9.418;2023-07-31T03:31:28;7.73;;;7.10;;
40755;SDS011;26461;45.630;9.418;2023-07-31T03:34:33;6.83;;;6.47;;
40755;SDS011;26461;45.630;9.418;2023-07-31T03:37:38;7.57;;;6.83;;
40755;SDS011;26461;45.630;9.418;2023-07-31T03:40:44;6.67;;;5.10;;
40755;SDS011;26461;45.630;9.418;2023-07-31T03:43:49;6.53;;;6.17;;
40755;SDS011;26461;45.630;9.418;2023-07-31T03:47:05;7.37;;;6.43;;
40755;SDS011;26461;45.630;9.418;2023-07-31T03:50:11;6.40;;;5.87;;
40755;SDS011;26461;45.630;9.418;2023-07-31T03:53:21;10.13;;;5.93;;
40755;SDS011;26461;45.630;9.418;2023-07-31T03:56:27;6.97;;;5.73;;
40755;SDS011;26461;45.630;9.418;2023-07-31T03:59:32;5.97;;;5.67;;
40755;SDS011;26461;45.630;9.418;2023-07-31T04:02:37;5.50;;;5.20;;
40755;SDS011;26461;45.630;9.418;2023-07-31T04:05:47;6.17;;;5.83;;
40755;SDS011;26461;45.630;9.418;2023-07-31T04:08:58;5.03;;;4.73;;
40755;SDS011;26461;45.630;9.418;2023-07-31T04:12:05;6.63;;;6.23;;
40755;SDS011;26461;45.630;9.418;2023-07-31T04:15:15;7.30;;;6.37;;
40755;SDS011;26461;45.630;9.418;2023-07-31T04:18:21;6.13;;;5.83;;
40755;SDS011;26461;45.630;9.418;2023-07-31T04:21:27;7.03;;;6.67;;
40755;SDS011;26461;45.630;9.418;2023-07-31T04:24:37;6.53;;;5.83;;
40755;SDS011;26461;45.630;9.418;2023-07-31T04:27:43;6.73;;;6.33;;
40755;SDS011;26461;45.630;9.418;2023-07-31T04:30:48;5.67;;;5.37;;
40755;SDS011;26461;45.630;9.418;2023-07-31T04:33:53;6.10;;;5.00;;
40755;SDS011;26461;45.630;9.418;2023-07-31T04:37:05;6.07;;;5.77;;
40755;SDS011;26461;45.630;9.418;2023-07-31T04:40:11;5.73;;;5.43;;
40755;SDS011;26461;45.630;9.418;2023-07-31T04:43:22;5.43;;;5.10;;
40755;SDS011;26461;45.630;9.418;2023-07-31T04:46:32;6.10;;;5.73;;
40755;SDS011;26461;45.630;9.418;2023-07-31T04:49:43;5.57;;;5.27;;
40755;SDS011;26461;45.630;9.418;2023-07-31T04:52:48;5.47;;;5.17;;
40755;SDS011;26461;45.630;9.418;2023-07-31T04:55:58;5.37;;;5.07;;
40755;SDS011;26461;45.630;9.418;2023-07-31T05:03:31;5.73;;;5.43;;
40755;SDS011;26461;45.630;9.418;2023-07-31T05:06:41;5.23;;;4.93;;
40755;SDS011;26461;45.630;9.418;2023-07-31T05:09:51;7.40;;;5.10;;
40755;SDS011;26461;45.630;9.418;2023-07-31T05:13:01;5.20;;;4.90;;
40755;SDS011;26461;45.630;9.418;2023-07-31T05:16:12;5.97;;;5.47;;
40755;SDS011;26461;45.630;9.418;2023-07-31T05:19:22;5.40;;;5.00;;
40755;SDS011;26461;45.630;9.418;2023-07-31T05:22:27;6.73;;;6.13;;
40755;SDS011;26461;45.630;9.418;2023-07-31T05:25:37;12.07;;;5.97;;
40755;SDS011;26461;45.630;9.418;2023-07-31T05:28:47;6.00;;;5.37;;
40755;SDS011;26461;45.630;9.418;2023-07-31T05:31:58;6.13;;;5.83;;
40755;SDS011;26461;45.630;9.418;2023-07-31T05:35:08;6.57;;;4.87;;
40755;SDS011;26461;45.630;9.418;2023-07-31T05:38:18;5.10;;;4.90;;
40755;SDS011;26461;45.630;9.418;2023-07-31T05:41:29;7.93;;;5.13;;
40755;SDS011;26461;45.630;9.418;2023-07-31T05:44:34;6.20;;;5.63;;
40755;SDS011;26461;45.630;9.418;2023-07-31T05:47:39;6.43;;;6.03;;
40755;SDS011;26461;45.630;9.418;2023-07-31T05:50:49;5.37;;;5.07;;
40755;SDS011;26461;45.630;9.418;2023-07-31T05:53:55;7.00;;;5.33;;
40755;SDS011;26461;45.630;9.418;2023-07-31T05:57:05;5.07;;;4.77;;
40755;SDS011;26461;45.630;9.418;2023-07-31T06:00:11;4.60;;;4.17;;
40755;SDS011;26461;45.630;9.418;2023-07-31T06:03:22;5.97;;;4.73;;
40755;SDS011;26461;45.630;9.418;2023-07-31T06:06:32;5.43;;;4.63;;
40755;SDS011;26461;45.630;9.418;2023-07-31T06:09:37;4.63;;;4.03;;
40755;SDS011;26461;45.630;9.418;2023-07-31T06:12:47;8.60;;;4.40;;
40755;SDS011;26461;45.630;9.418;2023-07-31T06:15:52;6.27;;;4.40;;
40755;SDS011;26461;45.630;9.418;2023-07-31T06:18:57;4.33;;;3.50;;
40755;SDS011;26461;45.630;9.418;2023-07-31T06:22:10;4.63;;;4.33;;
40755;SDS011;26461;45.630;9.418;2023-07-31T06:25:15;4.47;;;4.23;;
40755;SDS011;26461;45.630;9.418;2023-07-31T06:28:20;5.80;;;4.50;;
40755;SDS011;26461;45.630;9.418;2023-07-31T06:31:25;5.00;;;4.73;;
40755;SDS011;26461;45.630;9.418;2023-07-31T06:34:30;5.70;;;4.67;;
40755;SDS011;26461;45.630;9.418;2023-07-31T06:37:40;5.87;;;4.40;;
40755;SDS011;26461;45.630;9.418;2023-07-31T06:40:48;4.50;;;3.93;;
40755;SDS011;26461;45.630;9.418;2023-07-31T06:43:53;5.40;;;4.23;;
40755;SDS011;26461;45.630;9.418;2023-07-31T06:46:59;4.60;;;4.10;;
40755;SDS011;26461;45.630;9.418;2023-07-31T06:50:05;5.10;;;4.80;;
40755;SDS011;26461;45.630;9.418;2023-07-31T06:53:15;4.33;;;4.03;;
40755;SDS011;26461;45.630;9.418;2023-07-31T06:56:26;8.40;;;3.83;;
40755;SDS011;26461;45.630;9.418;2023-07-31T06:59:38;7.30;;;4.10;;
40755;SDS011;26461;45.630;9.418;2023-07-31T07:02:48;7.10;;;4.27;;
40755;SDS011;26461;45.630;9.418;2023-07-31T07:05:54;4.90;;;4.47;;
40755;SDS011;26461;45.630;9.418;2023-07-31T07:09:04;4.73;;;4.27;;
40755;SDS011;26461;45.630;9.418;2023-07-31T07:12:09;4.40;;;4.17;;
40755;SDS011;26461;45.630;9.418;2023-07-31T07:15:19;4.40;;;4.10;;
40755;SDS011;26461;45.630;9.418;2023-07-31T07:18:25;5.20;;;4.70;;
40755;SDS011;26461;45.630;9.418;2023-07-31T07:21:30;4.40;;;4.10;;
40755;SDS011;26461;45.630;9.418;2023-07-31T07:24:40;4.87;;;4.57;;
40755;SDS011;26461;45.630;9.418;2023-07-31T07:27:45;5.80;;;5.00;;
40755;SDS011;26461;45.630;9.418;2023-07-31T07:30:55;5.33;;;5.03;;
40755;SDS011;26461;45.630;9.418;2023-07-31T07:34:01;5.27;;;5.03;;
40755;SDS011;26461;45.630;9.418;2023-07-31T07:37:11;5.23;;;4.00;;
40755;SDS011;26461;45.630;9.418;2023-07-31T07:40:17;5.10;;;4.80;;
40755;SDS011;26461;45.630;9.418;2023-07-31T07:43:21;4.90;;;4.60;;
40755;SDS011;26461;45.630;9.418;2023-07-31T07:46:32;4.50;;;4.27;;
40755;SDS011;26461;45.630;9.418;2023-07-31T07:49:37;5.00;;;3.90;;
40755;SDS011;26461;45.630;9.418;2023-07-31T07:52:42;6.23;;;4.63;;
40755;SDS011;26461;45.630;9.418;2023-07-31T07:55:47;5.23;;;4.20;;
40755;SDS011;26461;45.630;9.418;2023-07-31T07:58:52;5.33;;;4.93;;
40755;SDS011;26461;45.630;9.418;2023-07-31T08:02:04;6.00;;;4.10;;
40755;SDS011;26461;45.630;9.418;2023-07-31T08:05:14;3.80;;;3.60;;
40755;SDS011;26461;45.630;9.418;2023-07-31T08:08:19;4.13;;;3.90;;
40755;SDS011;26461;45.630;9.418;2023-07-31T08:11:29;4.30;;;4.10;;
40755;SDS011;26461;45.630;9.418;2023-07-31T08:14:39;4.07;;;3.80;;
40755;SDS011;26461;45.630;9.418;2023-07-31T08:22:35;3.50;;;3.30;;
40755;SDS011;26461;45.630;9.418;2023-07-31T08:25:41;4.73;;;4.43;;
40755;SDS011;26461;45.630;9.418;2023-07-31T08:28:47;6.43;;;4.30;;
40755;SDS011;26461;45.630;9.418;2023-07-31T08:31:52;5.03;;;4.20;;
40755;SDS011;26461;45.630;9.418;2023-07-31T08:35:02;4.80;;;4.50;;
40755;SDS011;26461;45.630;9.418;2023-07-31T08:38:12;6.40;;;4.70;;
40755;SDS011;26461;45.630;9.418;2023-07-31T08:41:17;8.07;;;5.20;;
40755;SDS011;26461;45.630;9.418;2023-07-31T08:44:22;4.73;;;4.37;;
40755;SDS011;26461;45.630;9.418;2023-07-31T08:47:29;7.50;;;4.73;;
40755;SDS011;26461;45.630;9.418;2023-07-31T08:50:36;4.37;;;4.00;;
40755;SDS011;26461;45.630;9.418;2023-07-31T08:53:42;8.60;;;5.27;;
40755;SDS011;26461;45.630;9.418;2023-07-31T08:56:52;5.50;;;5.20;;
40755;SDS011;26461;45.630;9.418;2023-07-31T09:00:03;6.77;;;5.30;;
40755;SDS011;26461;45.630;9.418;2023-07-31T09:03:17;4.23;;;4.00;;
40755;SDS011;26461;45.630;9.418;2023-07-31T09:06:28;4.73;;;4.43;;
40755;SDS011;26461;45.630;9.418;2023-07-31T09:09:35;6.30;;;5.77;;
40755;SDS011;26461;45.630;9.418;2023-07-31T09:12:45;5.17;;;4.93;;
40755;SDS011;26461;45.630;9.418;2023-07-31T09:15:51;4.97;;;4.67;;
40755;SDS011;26461;45.630;9.418;2023-07-31T09:19:01;7.37;;;5.03;;
40755;SDS011;26461;45.630;9.418;2023-07-31T09:22:07;6.47;;;4.70;;
40755;SDS011;26461;45.630;9.418;2023-07-31T09:25:20;7.03;;;4.67;;
40755;SDS011;26461;45.630;9.418;2023-07-31T09:28:31;5.53;;;5.23;;
40755;SDS011;26461;45.630;9.418;2023-07-31T09:31:42;4.80;;;4.50;;
40755;SDS011;26461;45.630;9.418;2023-07-31T09:34:47;5.47;;;5.17;;
40755;SDS011;26461;45.630;9.418;2023-07-31T09:37:59;5.60;;;5.30;;
40755;SDS011;26461;45.630;9.418;2023-07-31T09:41:07;5.27;;;4.97;;
40755;SDS011;26461;45.630;9.418;2023-07-31T09:44:14;4.90;;;4.60;;
40755;SDS011;26461;45.630;9.418;2023-07-31T09:47:23;5.23;;;4.93;;
40755;SDS011;26461;45.630;9.418;2023-07-31T09:50:34;6.23;;;4.33;;
40755;SDS011;26461;45.630;9.418;2023-07-31T09:53:52;5.60;;;5.30;;
40755;SDS011;26461;45.630;9.418;2023-07-31T09:56:57;5.90;;;5.07;;
40755;SDS011;26461;45.630;9.418;2023-07-31T10:00:10;4.70;;;4.40;;
40755;SDS011;26461;45.630;9.418;2023-07-31T10:03:18;5.20;;;4.90;;
40755;SDS011;26461;45.630;9.418;2023-07-31T10:06:24;10.00;;;5.73;;
40755;SDS011;26461;45.630;9.418;2023-07-31T10:09:32;5.50;;;5.20;;
40755;SDS011;26461;45.630;9.418;2023-07-31T10:12:40;5.23;;;4.93;;
40755;SDS011;26461;45.630;9.418;2023-07-31T10:15:52;5.20;;;4.90;;
40755;SDS011;26461;45.630;9.418;2023-07-31T10:19:07;5.07;;;4.77;;
40755;SDS011;26461;45.630;9.418;2023-07-31T10:22:14;4.80;;;4.50;;
40755;SDS011;26461;45.630;9.418;2023-07-31T10:25:25;4.60;;;4.30;;
40755;SDS011;26461;45.630;9.418;2023-07-31T10:28:37;5.60;;;5.13;;
40755;SDS011;26461;45.630;9.418;2023-07-31T10:31:48;4.87;;;4.50;;
40755;SDS011;26461;45.630;9.418;2023-07-31T10:35:00;13.50;;;5.63;;
40755;SDS011;26461;45.630;9.418;2023-07-31T10:38:11;4.37;;;4.07;;
40755;SDS011;26461;45.630;9.418;2023-07-31T10:41:28;5.57;;;5.27;;
40755;SDS011;26461;45.630;9.418;2023-07-31T10:44:36;5.37;;;5.07;;
40755;SDS011;26461;45.630;9.418;2023-07-31T10:47:46;5.43;;;5.13;;
40755;SDS011;26461;45.630;9.418;2023-07-31T10:50:54;6.13;;;5.90;;
40755;SDS011;26461;45.630;9.418;2023-07-31T10:54:13;6.67;;;5.97;;
40755;SDS011;26461;45.630;9.418;2023-07-31T10:57:24;6.47;;;6.07;;
40755;SDS011;26461;45.630;9.418;2023-07-31T11:00:36;5.53;;;5.23;;
40755;SDS011;26461;45.630;9.418;2023-07-31T11:03:47;6.17;;;5.87;;
40755;SDS011;26461;45.630;9.418;2023-07-31T11:07:00;9.40;;;6.03;;
40755;SDS011;26461;45.630;9.418;2023-07-31T11:10:07;7.93;;;5.40;;
40755;SDS011;26461;45.630;9.418;2023-07-31T11:13:12;5.70;;;5.40;;
40755;SDS011;26461;45.630;9.418;2023-07-31T11:16:19;5.23;;;5.00;;
40755;SDS011;26461;45.630;9.418;2023-07-31T11:19:26;5.97;;;5.67;;
40755;SDS011;26461;45.630;9.418;2023-07-31T11:22:36;6.00;;;5.70;;
40755;SDS011;26461;45.630;9.418;2023-07-31T11:25:46;5.90;;;5.43;;
40755;SDS011;26461;45.630;9.418;2023-07-31T11:28:51;6.50;;;6.10;;
40755;SDS011;26461;45.630;9.418;2023-07-31T11:32:02;7.60;;;5.43;;
40755;SDS011;26461;45.630;9.418;2023-07-31T11:35:13;4.93;;;4.63;;
40755;SDS011;26461;45.630;9.418;2023-07-31T11:38:21;6.20;;;5.90;;
40755;SDS011;26461;45.630;9.418;2023-07-31T11:41:32;7.07;;;6.67;;
40755;SDS011;26461;45.630;9.418;2023-07-31T11:44:42;6.50;;;6.10;;
40755;SDS011;26461;45.630;9.418;2023-07-31T11:47:52;6.27;;;5.93;;
40755;SDS011;26461;45.630;9.418;2023-07-31T11:51:04;8.23;;;6.73;;
40755;SDS011;26461;45.630;9.418;2023-07-31T11:54:15;6.47;;;6.07;;
40755;SDS011;26461;45.630;9.418;2023-07-31T11:57:25;6.63;;;6.23;;
40755;SDS011;26461;45.630;9.418;2023-07-31T12:00:32;5.90;;;5.60;;
40755;SDS011;26461;45.630;9.418;2023-07-31T12:03:42;7.10;;;6.70;;
40755;SDS011;26461;45.630;9.418;2023-07-31T12:06:48;9.43;;;8.13;;
40755;SDS011;26461;45.630;9.418;2023-07-31T12:09:54;6.70;;;6.30;;
40755;SDS011;26461;45.630;9.418;2023-07-31T12:13:04;6.47;;;6.07;;
40755;SDS011;26461;45.630;9.418;2023-07-31T12:16:19;6.80;;;6.40;;
40755;SDS011;26461;45.630;9.418;2023-07-31T12:19:29;6.33;;;5.97;;
40755;SDS011;26461;45.630;9.418;2023-07-31T12:22:40;6.03;;;5.73;;
40755;SDS011;26461;45.630;9.418;2023-07-31T12:25:59;5.93;;;5.60;;
40755;SDS011;26461;45.630;9.418;2023-07-31T12:29:06;6.97;;;6.57;;
40755;SDS011;26461;45.630;9.418;2023-07-31T12:32:21;7.27;;;5.77;;
40755;SDS011;26461;45.630;9.418;2023-07-31T12:35:36;6.53;;;6.03;;
40755;SDS011;26461;45.630;9.418;2023-07-31T12:38:42;9.10;;;6.90;;
40755;SDS011;26461;45.630;9.418;2023-07-31T12:41:52;7.10;;;6.70;;
40755;SDS011;26461;45.630;9.418;2023-07-31T12:45:03;6.83;;;6.43;;
40755;SDS011;26461;45.630;9.418;2023-07-31T12:48:13;8.13;;;7.73;;
40755;SDS011;26461;45.630;9.418;2023-07-31T12:51:23;12.27;;;8.77;;
40755;SDS011;26461;45.630;9.418;2023-07-31T12:54:34;10.90;;;10.30;;
40755;SDS011;26461;45.630;9.418;2023-07-31T12:57:45;9.43;;;8.93;;
40755;SDS011;26461;45.630;9.418;2023-07-31T13:00:50;7.17;;;6.53;;
40755;SDS011;26461;45.630;9.418;2023-07-31T13:03:55;9.97;;;8.73;;
40755;SDS011;26461;45.630;9.418;2023-07-31T13:07:02;13.50;;;11.30;;
40755;SDS011;26461;45.630;9.418;2023-07-31T13:10:12;6.20;;;5.50;;
40755;SDS011;26461;45.630;9.418;2023-07-31T13:13:22;6.60;;;6.20;;
40755;SDS011;26461;45.630;9.418;2023-07-31T13:16:27;6.93;;;6.47;;
40755;SDS011;26461;45.630;9.418;2023-07-31T13:19:38;7.00;;;6.60;;
40755;SDS011;26461;45.630;9.418;2023-07-31T13:22:48;6.43;;;6.03;;
40755;SDS011;26461;45.630;9.418;2023-07-31T13:25:58;6.27;;;5.80;;
40755;SDS011;26461;45.630;9.418;2023-07-31T13:29:04;7.40;;;7.00;;
40755;SDS011;26461;45.630;9.418;2023-07-31T13:32:15;7.67;;;6.70;;
40755;SDS011;26461;45.630;9.418;2023-07-31T13:35:25;5.73;;;5.43;;
40755;SDS011;26461;45.630;9.418;2023-07-31T13:38:35;8.00;;;5.50;;
40755;SDS011;26461;45.630;9.418;2023-07-31T13:41:45;6.13;;;5.83;;
40755;SDS011;26461;45.630;9.418;2023-07-31T13:44:56;5.93;;;5.63;;
40755;SDS011;26461;45.630;9.418;2023-07-31T13:48:01;6.80;;;5.97;;
40755;SDS011;26461;45.630;9.418;2023-07-31T13:51:06;6.00;;;5.70;;
40755;SDS011;26461;45.630;9.418;2023-07-31T13:54:11;6.63;;;6.23;;
40755;SDS011;26461;45.630;9.418;2023-07-31T13:57:23;6.97;;;6.57;;
40755;SDS011;26461;45.630;9.418;2023-07-31T14:00:28;7.53;;;5.90;;
40755;SDS011;26461;45.630;9.418;2023-07-31T14:03:39;6.27;;;5.93;;
40755;SDS011;26461;45.630;9.418;2023-07-31T14:06:49;6.00;;;5.70;;
40755;SDS011;26461;45.630;9.418;2023-07-31T14:10:00;7.30;;;6.90;;
40755;SDS011;26461;45.630;9.418;2023-07-31T14:13:10;6.57;;;6.17;;
40755;SDS011;26461;45.630;9.418;2023-07-31T14:16:15;5.87;;;5.57;;
40755;SDS011;26461;45.630;9.418;2023-07-31T14:19:20;6.93;;;6.53;;
40755;SDS011;26461;45.630;9.418;2023-07-31T14:22:29;7.87;;;6.77;;
40755;SDS011;26461;45.630;9.418;2023-07-31T14:25:40;6.70;;;5.67;;
40755;SDS011;26461;45.630;9.418;2023-07-31T14:28:50;7.40;;;6.77;;
40755;SDS011;26461;45.630;9.418;2023-07-31T14:32:03;5.33;;;5.03;;
40755;SDS011;26461;45.630;9.418;2023-07-31T14:35:14;6.40;;;6.00;;
40755;SDS011;26461;45.630;9.418;2023-07-31T14:38:19;6.43;;;6.03;;
40755;SDS011;26461;45.630;9.418;2023-07-31T14:41:30;6.17;;;5.87;;
40755;SDS011;26461;45.630;9.418;2023-07-31T14:44:35;6.93;;;6.53;;
40755;SDS011;26461;45.630;9.418;2023-07-31T14:47:40;7.37;;;6.70;;
40755;SDS011;26461;45.630;9.418;2023-07-31T14:50:45;6.40;;;5.70;;
40755;SDS011;26461;45.630;9.418;2023-07-31T14:53:50;7.00;;;6.60;;
40755;SDS011;26461;45.630;9.418;2023-07-31T14:56:55;7.53;;;7.13;;
40755;SDS011;26461;45.630;9.418;2023-07-31T15:00:02;7.30;;;6.90;;
40755;SDS011;26461;45.630;9.418;2023-07-31T15:03:14;7.30;;;6.90;;
40755;SDS011;26461;45.630;9.418;2023-07-31T15:06:25;7.00;;;6.60;;
40755;SDS011;26461;45.630;9.418;2023-07-31T15:09:31;7.97;;;6.90;;
40755;SDS011;26461;45.630;9.418;2023-07-31T15:12:41;7.23;;;6.83;;
40755;SDS011;26461;45.630;9.418;2023-07-31T15:15:52;7.10;;;6.70;;
40755;SDS011;26461;45.630;9.418;2023-07-31T15:19:02;7.27;;;6.87;;
40755;SDS011;26461;45.630;9.418;2023-07-31T15:22:13;11.10;;;5.83;;
40755;SDS011;26461;45.630;9.418;2023-07-31T15:25:23;7.57;;;6.60;;
40755;SDS011;26461;45.630;9.418;2023-07-31T15:28:33;6.70;;;6.30;;
40755;SDS011;26461;45.630;9.418;2023-07-31T15:31:46;6.17;;;5.87;;
40755;SDS011;26461;45.630;9.418;2023-07-31T15:34:53;6.60;;;6.20;;
40755;SDS011;26461;45.630;9.418;2023-07-31T15:38:03;6.03;;;5.73;;
40755;SDS011;26461;45.630;9.418;2023-07-31T15:41:13;6.57;;;6.17;;
40755;SDS011;26461;45.630;9.418;2023-07-31T15:44:23;6.57;;;5.83;;
40755;SDS011;26461;45.630;9.418;2023-07-31T15:47:33;5.60;;;5.30;;
40755;SDS011;26461;45.630;9.418;2023-07-31T15:50:43;7.20;;;6.80;;
40755;SDS011;26461;45.630;9.418;2023-07-31T15:53:48;6.57;;;6.17;;
40755;SDS011;26461;45.630;9.418;2023-07-31T15:56:54;6.97;;;5.60;;
40755;SDS011;26461;45.630;9.418;2023-07-31T15:59:59;6.40;;;6.00;;
40755;SDS011;26461;45.630;9.418;2023-07-31T16:03:04;5.83;;;5.53;;
40755;SDS011;26461;45.630;9.418;2023-07-31T16:06:14;5.90;;;5.60;;
40755;SDS011;26461;45.630;9.418;2023-07-31T16:09:24;6.60;;;5.80;;
40755;SDS011;26461;45.630;9.418;2023-07-31T16:12:29;7.70;;;5.70;;
40755;SDS011;26461;45.630;9.418;2023-07-31T16:15:39;5.93;;;5.63;;
40755;SDS011;26461;45.630;9.418;2023-07-31T16:18:44;6.50;;;6.10;;
40755;SDS011;26461;45.630;9.418;2023-07-31T16:21:50;6.47;;;6.07;;
40755;SDS011;26461;45.630;9.418;2023-07-31T16:24:55;7.20;;;6.80;;
40755;SDS011;26461;45.630;9.418;2023-07-31T16:28:05;6.10;;;5.80;;
40755;SDS011;26461;45.630;9.418;2023-07-31T16:31:12;7.13;;;6.40;;
40755;SDS011;26461;45.630;9.418;2023-07-31T16:34:22;5.70;;;5.40;;
40755;SDS011;26461;45.630;9.418;2023-07-31T16:37:33;7.63;;;6.60;;
40755;SDS011;26461;45.630;9.418;2023-07-31T16:40:37;6.90;;;5.70;;
40755;SDS011;26461;45.630;9.418;2023-07-31T16:43:48;8.30;;;4.93;;
40755;SDS011;26461;45.630;9.418;2023-07-31T16:46:58;6.73;;;6.23;;
40755;SDS011;26461;45.630;9.418;2023-07-31T16:50:03;5.40;;;5.10;;
40755;SDS011;26461;45.630;9.418;2023-07-31T16:53:08;6.27;;;5.93;;
40755;SDS011;26461;45.630;9.418;2023-07-31T16:56:18;6.87;;;6.47;;
40755;SDS011;26461;45.630;9.418;2023-07-31T16:59:23;6.80;;;6.07;;
40755;SDS011;26461;45.630;9.418;2023-07-31T17:02:28;8.33;;;5.70;;
40755;SDS011;26461;45.630;9.418;2023-07-31T17:05:38;6.53;;;6.17;;
40755;SDS011;26461;45.630;9.418;2023-07-31T17:08:49;5.90;;;5.60;;
40755;SDS011;26461;45.630;9.418;2023-07-31T17:11:54;5.63;;;5.33;;
40755;SDS011;26461;45.630;9.418;2023-07-31T17:15:05;8.00;;;6.33;;
40755;SDS011;26461;45.630;9.418;2023-07-31T17:18:15;5.17;;;4.87;;
40755;SDS011;26461;45.630;9.418;2023-07-31T17:21:20;6.60;;;5.10;;
40755;SDS011;26461;45.630;9.418;2023-07-31T17:24:26;5.10;;;4.80;;
40755;SDS011;26461;45.630;9.418;2023-07-31T17:27:31;7.40;;;6.10;;
40755;SDS011;26461;45.630;9.418;2023-07-31T17:30:36;5.03;;;4.73;;
40755;SDS011;26461;45.630;9.418;2023-07-31T17:33:46;5.33;;;5.03;;
40755;SDS011;26461;45.630;9.418;2023-07-31T17:36:55;7.00;;;5.47;;
40755;SDS011;26461;45.630;9.418;2023-07-31T17:40:00;6.57;;;6.17;;
40755;SDS011;26461;45.630;9.418;2023-07-31T17:43:05;6.13;;;5.83;;
40755;SDS011;26461;45.630;9.418;2023-07-31T17:46:15;7.10;;;6.70;;
40755;SDS011;26461;45.630;9.418;2023-07-31T17:49:26;6.17;;;5.87;;
40755;SDS011;26461;45.630;9.418;2023-07-31T17:52:32;5.70;;;5.40;;
40755;SDS011;26461;45.630;9.418;2023-07-31T17:55:38;5.53;;;5.23;;
40755;SDS011;26461;45.630;9.418;2023-07-31T17:58:50;6.03;;;5.10;;
40755;SDS011;26461;45.630;9.418;2023-07-31T18:01:55;6.53;;;6.13;;
40755;SDS011;26461;45.630;9.418;2023-07-31T18:05:08;5.93;;;5.13;;
40755;SDS011;26461;45.630;9.418;2023-07-31T18:08:14;8.07;;;6.30;;
40755;SDS011;26461;45.630;9.418;2023-07-31T18:11:24;6.70;;;6.30;;
40755;SDS011;26461;45.630;9.418;2023-07-31T18:14:31;5.90;;;5.10;;
40755;SDS011;26461;45.630;9.418;2023-07-31T18:17:43;5.87;;;5.57;;
40755;SDS011;26461;45.630;9.418;2023-07-31T18:20:48;6.03;;;5.73;;
40755;SDS011;26461;45.630;9.418;2023-07-31T18:23:53;6.23;;;5.60;;
40755;SDS011;26461;45.630;9.418;2023-07-31T18:27:00;7.30;;;5.67;;
40755;SDS011;26461;45.630;9.418;2023-07-31T18:30:11;6.40;;;6.00;;
40755;SDS011;26461;45.630;9.418;2023-07-31T18:33:16;6.53;;;6.20;;
40755;SDS011;26461;45.630;9.418;2023-07-31T18:36:21;9.20;;;6.43;;
40755;SDS011;26461;45.630;9.418;2023-07-31T18:39:32;7.20;;;6.80;;
40755;SDS011;26461;45.630;9.418;2023-07-31T18:42:41;6.83;;;6.43;;
40755;SDS011;26461;45.630;9.418;2023-07-31T18:45:46;6.07;;;5.70;;
40755;SDS011;26461;45.630;9.418;2023-07-31T18:48:57;6.10;;;5.80;;
40755;SDS011;26461;45.630;9.418;2023-07-31T18:52:03;6.50;;;6.10;;
40755;SDS011;26461;45.630;9.418;2023-07-31T18:55:13;6.20;;;5.90;;
40755;SDS011;26461;45.630;9.418;2023-07-31T18:58:23;6.20;;;5.90;;
40755;SDS011;26461;45.630;9.418;2023-07-31T19:01:33;7.73;;;7.20;;
40755;SDS011;26461;45.630;9.418;2023-07-31T19:04:44;8.77;;;7.27;;
40755;SDS011;26461;45.630;9.418;2023-07-31T19:07:49;6.70;;;6.27;;
40755;SDS011;26461;45.630;9.418;2023-07-31T19:10:54;6.50;;;6.10;;